createdAt,value
2019-03-04T00:02:22.508Z,3.57
2019-03-04T00:04:54.343Z,4.10
2019-03-04T00:07:24.348Z,4.63
2019-03-04T00:09:57.512Z,3.47
2019-03-04T00:12:30.294Z,3.60
2019-03-04T00:15:00.353Z,3.90
2019-03-04T00:17:30.456Z,3.20
2019-03-04T00:20:00.452Z,3.80
2019-03-04T00:22:30.513Z,4.20
2019-03-04T00:25:02.215Z,3.40
2019-03-04T00:27:33.292Z,3.87
2019-03-04T00:30:04.389Z,3.80
2019-03-04T00:32:36.125Z,3.90
2019-03-04T00:35:09.544Z,3.33
2019-03-04T00:37:41.322Z,3.73
2019-03-04T00:40:12.689Z,3.10
2019-03-04T00:42:42.731Z,3.20
2019-03-04T00:45:15.265Z,2.57
2019-03-04T00:47:46.434Z,3.33
2019-03-04T00:50:16.499Z,3.00
2019-03-04T00:52:46.639Z,3.03
2019-03-04T00:55:19.579Z,3.20
2019-03-04T00:57:51.105Z,3.97
2019-03-04T01:00:24.200Z,3.87
2019-03-04T01:02:54.243Z,3.70
2019-03-04T01:05:25.773Z,3.87
2019-03-04T01:08:01.041Z,3.57
2019-03-04T01:10:32.164Z,3.80
2019-03-04T01:13:03.441Z,3.73
2019-03-04T01:15:33.556Z,3.90
2019-03-04T01:18:07.258Z,3.87
2019-03-04T01:20:38.143Z,3.53
2019-03-04T01:23:09.434Z,3.80
2019-03-04T01:25:39.407Z,3.63
2019-03-04T01:28:13.271Z,3.73
2019-03-04T01:30:43.322Z,3.43
2019-03-04T01:33:13.331Z,2.50
2019-03-04T01:35:46.625Z,2.80
2019-03-04T01:38:16.634Z,3.50
2019-03-04T01:40:50.758Z,2.73
2019-03-04T01:43:20.733Z,3.40
2019-03-04T01:45:53.414Z,2.90
2019-03-04T01:48:23.375Z,2.67
2019-03-04T01:50:56.167Z,2.83
2019-03-04T01:53:26.144Z,2.70
2019-03-04T01:56:00.938Z,2.67
2019-03-04T01:58:29.469Z,2.53
2019-03-04T02:00:59.540Z,2.80
2019-03-04T02:03:29.655Z,2.50
2019-03-04T02:06:02.170Z,2.50
2019-03-04T02:08:31.424Z,1.90
2019-03-04T02:11:01.400Z,2.00
2019-03-04T02:13:31.462Z,2.13
2019-03-04T02:16:08.400Z,2.60
2019-03-04T02:18:34.583Z,2.47
2019-03-04T02:21:04.596Z,1.70
2019-03-04T02:23:35.980Z,2.63
2019-03-04T02:26:19.289Z,2.63
2019-03-04T02:28:50.534Z,2.07
2019-03-04T02:31:20.578Z,2.10
2019-03-04T02:33:50.614Z,2.37
2019-03-04T02:36:23.145Z,2.37
2019-03-04T02:38:53.379Z,2.07
2019-03-04T02:41:23.440Z,1.90
2019-03-04T02:43:53.438Z,2.50
2019-03-04T02:46:24.709Z,2.70
2019-03-04T02:48:55.871Z,2.20
2019-03-04T02:51:29.943Z,2.43
2019-03-04T02:53:59.964Z,2.67
2019-03-04T02:56:31.130Z,2.00
2019-03-04T02:59:02.836Z,1.97
2019-03-04T03:01:32.906Z,2.27
2019-03-04T03:04:03.048Z,1.70
2019-03-04T03:06:33.124Z,1.70
2019-03-04T03:09:05.413Z,2.20
2019-03-04T03:11:35.472Z,1.87
2019-03-04T03:14:06.799Z,1.30
2019-03-04T03:16:39.938Z,1.80
2019-03-04T03:19:12.111Z,1.80
2019-03-04T03:21:41.466Z,1.30
2019-03-04T03:24:11.462Z,1.23
2019-03-04T03:26:41.460Z,2.73
2019-03-04T03:29:14.110Z,1.93
2019-03-04T03:31:47.033Z,1.60
2019-03-04T03:34:17.196Z,1.50
2019-03-04T03:36:47.256Z,1.23
2019-03-04T03:39:17.274Z,1.57
2019-03-04T03:41:50.213Z,1.30
2019-03-04T03:44:20.308Z,1.23
2019-03-04T03:46:53.368Z,1.57
2019-03-04T03:49:23.423Z,1.37
2019-03-04T03:51:54.403Z,1.63
2019-03-04T03:54:27.877Z,2.10
2019-03-04T03:56:57.889Z,2.27
2019-03-04T03:59:28.878Z,1.80
2019-03-04T04:01:58.942Z,1.10
2019-03-04T04:04:30.347Z,1.60
2019-03-04T04:07:00.389Z,1.60
2019-03-04T04:09:33.536Z,1.90
2019-03-04T04:12:03.374Z,2.30
2019-03-04T04:14:34.236Z,2.30
2019-03-04T04:17:07.056Z,1.80
2019-03-04T04:19:39.893Z,2.20
2019-03-04T04:22:14.393Z,1.77
2019-03-04T04:24:44.520Z,1.73
2019-03-04T04:27:14.510Z,1.73
2019-03-04T04:29:44.628Z,2.47
2019-03-04T04:32:15.905Z,1.93
2019-03-04T04:34:47.570Z,2.00
2019-03-04T04:37:18.915Z,1.70
2019-03-04T04:39:49.016Z,1.63
2019-03-04T04:42:18.996Z,1.80
2019-03-04T04:44:48.975Z,2.27
2019-03-04T04:47:18.960Z,2.30
2019-03-04T04:49:48.955Z,1.90
2019-03-04T04:52:19.038Z,1.80
2019-03-04T04:54:52.076Z,2.60
2019-03-04T04:57:22.180Z,1.83
2019-03-04T04:59:53.501Z,1.80
2019-03-04T05:02:24.741Z,1.83
2019-03-04T05:04:57.272Z,1.90
2019-03-04T05:07:27.508Z,1.73
2019-03-04T05:09:58.765Z,2.10
2019-03-04T05:12:30.428Z,1.80
2019-03-04T05:15:00.475Z,1.93
2019-03-04T05:17:30.547Z,1.80
2019-03-04T05:20:01.684Z,2.90
2019-03-04T05:22:32.786Z,1.90
2019-03-04T05:25:03.420Z,2.40
2019-03-04T05:27:33.511Z,2.30
2019-03-04T05:30:03.865Z,2.77
2019-03-04T05:32:35.393Z,3.43
2019-03-04T05:35:11.633Z,3.87
2019-03-04T05:37:44.577Z,1.73
2019-03-04T05:40:22.463Z,3.30
2019-03-04T05:42:52.490Z,2.77
2019-03-04T05:45:22.566Z,3.10
2019-03-04T05:47:54.300Z,3.00
2019-03-04T05:50:25.727Z,3.07
2019-03-04T05:53:02.982Z,2.90
2019-03-04T05:55:33.119Z,4.90
2019-03-04T05:58:03.204Z,2.40
2019-03-04T06:00:38.304Z,2.63
2019-03-04T06:03:13.004Z,2.90
2019-03-04T06:05:44.869Z,2.97
2019-03-04T06:08:14.975Z,2.90
2019-03-04T06:10:45.977Z,2.23
2019-03-04T06:13:18.079Z,2.37
2019-03-04T06:15:49.122Z,2.30
2019-03-04T06:18:19.232Z,2.17
2019-03-04T06:20:52.267Z,2.43
2019-03-04T06:23:22.362Z,1.83
2019-03-04T06:25:51.667Z,2.50
2019-03-04T06:28:28.553Z,1.93
2019-03-04T06:30:53.492Z,2.07
2019-03-04T06:33:25.329Z,2.93
2019-03-04T06:35:55.455Z,2.30
2019-03-04T06:38:27.121Z,2.30
2019-03-04T06:40:57.116Z,1.80
2019-03-04T06:43:28.248Z,1.90
2019-03-04T06:45:58.285Z,1.90
2019-03-04T06:48:28.277Z,1.87
2019-03-04T06:51:02.836Z,2.33
2019-03-04T06:53:59.486Z,2.03
2019-03-04T06:56:42.834Z,1.93
2019-03-04T06:59:30.871Z,2.40
2019-03-04T07:02:06.192Z,2.50
2019-03-04T07:04:59.926Z,2.60
2019-03-04T07:07:33.028Z,2.87
2019-03-04T07:10:03.251Z,2.20
2019-03-04T07:12:36.244Z,2.20
2019-03-04T07:15:08.406Z,1.77
2019-03-04T07:17:40.075Z,2.40
2019-03-04T07:20:12.159Z,2.43
2019-03-04T07:22:43.615Z,2.03
2019-03-04T07:25:15.455Z,3.00
2019-03-04T07:27:45.839Z,2.13
2019-03-04T07:30:16.033Z,2.93
2019-03-04T07:32:48.009Z,3.27
2019-03-04T07:35:19.334Z,2.63
2019-03-04T07:37:59.362Z,3.30
2019-03-04T07:40:29.379Z,3.13
2019-03-04T07:42:59.485Z,2.90
2019-03-04T07:45:31.290Z,3.10
2019-03-04T07:48:02.952Z,3.70
2019-03-04T07:50:33.033Z,3.90
2019-03-04T07:53:03.116Z,3.80
2019-03-04T07:55:35.902Z,3.60
2019-03-04T07:58:06.171Z,3.57
2019-03-04T08:00:38.218Z,4.20
2019-03-04T08:03:11.238Z,3.53
2019-03-04T08:05:41.323Z,2.80
2019-03-04T08:08:13.875Z,3.53
2019-03-04T08:11:29.211Z,2.90
2019-03-04T08:14:01.390Z,2.17
2019-03-04T08:16:31.504Z,2.17
2019-03-04T08:19:01.653Z,2.00
2019-03-04T08:21:33.204Z,1.97
2019-03-04T08:24:06.629Z,2.10
2019-03-04T08:26:38.693Z,2.50
2019-03-04T08:29:08.885Z,2.63
2019-03-04T08:31:38.981Z,2.13
2019-03-04T08:34:11.018Z,2.20
2019-03-04T08:36:41.965Z,2.87
2019-03-04T08:39:13.408Z,3.57
2019-03-04T08:41:43.411Z,3.40
2019-03-04T08:44:15.385Z,2.60
2019-03-04T08:46:45.560Z,2.10
2019-03-04T08:49:15.647Z,1.80
2019-03-04T08:51:45.762Z,2.40
2019-03-04T08:54:18.527Z,2.27
2019-03-04T08:56:50.233Z,2.00
2019-03-04T08:59:21.569Z,1.63
2019-03-04T09:01:53.282Z,1.80
2019-03-04T09:04:23.457Z,2.37
2019-03-04T09:06:53.584Z,1.70
2019-03-04T09:09:23.624Z,1.33
2019-03-04T09:11:55.678Z,2.00
2019-03-04T09:14:26.620Z,1.70
2019-03-04T09:16:56.816Z,1.70
2019-03-04T09:19:26.921Z,1.60
2019-03-04T09:21:56.913Z,1.27
2019-03-04T09:24:27.096Z,1.23
2019-03-04T09:26:57.136Z,1.10
2019-03-04T09:29:27.198Z,1.60
2019-03-04T09:31:57.228Z,2.27
2019-03-04T09:34:27.540Z,1.00
2019-03-04T09:36:57.562Z,0.90
2019-03-04T09:39:27.648Z,1.30
2019-03-04T09:42:05.476Z,1.33
2019-03-04T09:44:35.636Z,1.60
2019-03-04T09:47:05.771Z,1.63
2019-03-04T09:49:35.804Z,0.77
2019-03-04T09:52:05.950Z,0.97
2019-03-04T09:54:36.031Z,0.90
2019-03-04T09:57:06.160Z,1.30
2019-03-04T09:59:36.195Z,1.00
2019-03-04T10:02:14.014Z,1.33
2019-03-04T10:05:18.352Z,1.10
2019-03-04T10:08:09.799Z,1.20
2019-03-04T10:11:16.918Z,1.10
2019-03-04T10:14:25.040Z,1.40
2019-03-04T10:17:21.098Z,1.37
2019-03-04T10:20:37.331Z,0.90
2019-03-04T10:23:27.991Z,1.00
2019-03-04T10:26:50.639Z,1.30
2019-03-04T10:29:55.251Z,2.97
2019-03-04T10:33:21.718Z,3.10
2019-03-04T10:36:15.765Z,2.70
2019-03-04T10:39:22.483Z,3.37
2019-03-04T10:42:44.527Z,3.10
2019-03-04T10:45:34.555Z,2.20
2019-03-04T10:48:04.763Z,2.20
2019-03-04T10:50:34.803Z,2.00
2019-03-04T10:53:05.017Z,2.10
2019-03-04T10:55:41.979Z,2.33
2019-03-04T10:58:07.983Z,2.10
2019-03-04T11:00:38.069Z,1.83
2019-03-04T11:03:08.163Z,2.17
2019-03-04T11:05:38.167Z,2.43
2019-03-04T11:08:08.267Z,2.60
2019-03-04T11:10:38.351Z,2.07
2019-03-04T11:13:08.413Z,2.07
2019-03-04T11:15:38.419Z,1.60
2019-03-04T11:18:08.509Z,1.70
2019-03-04T11:20:39.720Z,1.93
2019-03-04T11:23:09.806Z,1.57
2019-03-04T11:25:39.896Z,1.77
2019-03-04T11:28:11.086Z,1.90
2019-03-04T11:30:42.298Z,1.53
2019-03-04T11:33:12.376Z,1.60
2019-03-04T11:35:42.487Z,1.70
2019-03-04T11:38:47.813Z,1.90
2019-03-04T11:41:22.156Z,1.53
2019-03-04T11:43:52.812Z,1.60
2019-03-04T11:46:24.493Z,1.70
2019-03-04T11:48:54.582Z,2.10
2019-03-04T11:51:24.673Z,2.03
2019-03-04T11:53:54.670Z,2.00
2019-03-04T11:56:24.766Z,1.90
2019-03-04T11:58:54.814Z,2.30
2019-03-04T12:01:36.674Z,2.07
2019-03-04T12:04:06.831Z,2.00
2019-03-04T12:06:37.032Z,2.30
2019-03-04T12:09:14.186Z,2.10
2019-03-04T12:11:44.175Z,2.23
2019-03-04T12:14:14.194Z,2.53
2019-03-04T12:16:44.296Z,1.83
2019-03-04T12:19:14.517Z,2.10
2019-03-04T12:21:45.832Z,2.60
2019-03-04T12:24:15.913Z,2.17
2019-03-04T12:26:46.208Z,2.50
2019-03-04T12:29:16.268Z,2.33
2019-03-04T12:32:11.470Z,2.23
2019-03-04T12:34:41.653Z,2.43
2019-03-04T12:37:14.100Z,2.40
2019-03-04T12:39:43.485Z,1.90
2019-03-04T12:42:15.041Z,2.30
2019-03-04T12:44:46.557Z,2.23
2019-03-04T12:47:17.873Z,2.27
2019-03-04T12:49:48.933Z,2.20
2019-03-04T12:52:19.007Z,2.47
2019-03-04T12:54:49.091Z,1.60
2019-03-04T12:57:19.177Z,2.07
2019-03-04T12:59:49.215Z,2.30
2019-03-04T13:02:20.323Z,1.70
2019-03-04T13:04:50.325Z,1.23
2019-03-04T13:07:20.392Z,0.97
2019-03-04T13:09:51.635Z,1.00
2019-03-04T13:12:24.246Z,0.60
2019-03-04T13:14:55.199Z,0.40
2019-03-04T13:17:25.307Z,0.63
2019-03-04T13:19:57.597Z,0.80
2019-03-04T13:22:29.256Z,0.70
2019-03-04T13:24:59.392Z,0.43
2019-03-04T13:27:29.429Z,1.20
2019-03-04T13:30:00.715Z,0.60
2019-03-04T13:32:30.861Z,0.80
2019-03-04T13:35:02.329Z,0.70
2019-03-04T13:37:32.445Z,0.60
2019-03-04T13:40:03.613Z,0.87
2019-03-04T13:42:34.907Z,0.43
2019-03-04T13:45:07.768Z,0.63
2019-03-04T13:47:40.259Z,0.57
2019-03-04T13:50:14.393Z,0.60
2019-03-04T13:52:44.502Z,0.60
2019-03-04T13:55:20.094Z,0.87
2019-03-04T13:57:53.206Z,0.60
2019-03-04T14:00:23.433Z,0.60
2019-03-04T14:02:55.060Z,0.67
2019-03-04T14:05:25.070Z,0.70
2019-03-04T14:07:55.415Z,1.57
2019-03-04T14:10:27.941Z,0.50
2019-03-04T14:12:57.232Z,0.70
2019-03-04T14:15:32.117Z,0.80
2019-03-04T14:18:03.372Z,0.50
2019-03-04T14:20:35.912Z,7.13
2019-03-04T14:23:08.444Z,0.93
2019-03-04T14:25:40.164Z,0.50
2019-03-04T14:28:10.594Z,0.60
2019-03-04T14:30:40.900Z,0.50
2019-03-04T14:33:11.014Z,0.50
2019-03-04T14:35:42.306Z,0.50
2019-03-04T14:38:13.436Z,1.30
2019-03-04T14:40:44.756Z,1.13
2019-03-04T14:43:14.888Z,0.60
2019-03-04T14:45:44.898Z,1.10
2019-03-04T14:48:14.979Z,1.00
2019-03-04T14:50:45.157Z,0.90
2019-03-04T14:53:15.198Z,0.50
2019-03-04T14:55:45.400Z,0.60
2019-03-04T14:58:15.563Z,0.73
2019-03-04T15:00:51.338Z,0.70
2019-03-04T15:03:23.916Z,0.80
2019-03-04T15:05:53.136Z,0.73
2019-03-04T15:08:23.197Z,0.80
2019-03-04T15:10:53.299Z,0.93
2019-03-04T15:13:23.390Z,0.80
2019-03-04T15:16:01.120Z,1.10
2019-03-04T15:18:25.188Z,1.63
2019-03-04T15:20:56.393Z,1.87
2019-03-04T15:23:26.515Z,2.10
2019-03-04T15:25:56.678Z,1.30
2019-03-04T15:28:26.844Z,1.00
2019-03-04T15:30:59.201Z,0.63
2019-03-04T15:33:32.575Z,0.70
2019-03-04T15:36:03.462Z,1.13
2019-03-04T15:38:33.561Z,1.50
2019-03-04T15:41:03.740Z,1.45
2019-03-04T15:43:36.375Z,2.17
2019-03-04T15:46:07.812Z,1.00
2019-03-04T15:48:37.637Z,0.90
2019-03-04T15:51:07.760Z,0.97
2019-03-04T15:53:37.906Z,0.90
2019-03-04T15:56:07.974Z,0.80
2019-03-04T15:58:38.118Z,0.90
2019-03-04T16:01:11.299Z,1.63
2019-03-04T16:03:41.403Z,0.87
2019-03-04T16:06:11.495Z,0.87
2019-03-04T16:08:43.886Z,0.90
2019-03-04T16:11:13.847Z,1.30
2019-03-04T16:13:52.738Z,1.37
2019-03-04T16:16:15.683Z,1.00
2019-03-04T16:18:45.920Z,1.20
2019-03-04T16:21:16.010Z,1.20
2019-03-04T16:23:47.282Z,1.43
2019-03-04T16:26:17.482Z,1.13
2019-03-04T16:28:47.661Z,0.90
2019-03-04T16:31:17.777Z,0.83
2019-03-04T16:33:47.879Z,1.13
2019-03-04T16:36:18.262Z,1.20
2019-03-04T16:38:48.387Z,0.90
2019-03-04T16:41:18.581Z,1.03
2019-03-04T16:43:48.696Z,1.40
2019-03-04T16:46:18.898Z,1.20
2019-03-04T16:48:48.953Z,1.53
2019-03-04T16:51:19.068Z,0.87
2019-03-04T16:53:49.158Z,1.77
2019-03-04T16:56:19.214Z,1.50
2019-03-04T16:58:49.245Z,1.87
2019-03-04T17:01:19.366Z,4.10
2019-03-04T17:03:50.470Z,2.43
2019-03-04T17:06:20.610Z,1.60
2019-03-04T17:08:53.152Z,2.00
2019-03-04T17:11:22.467Z,1.23
2019-03-04T17:13:52.472Z,1.30
2019-03-04T17:16:22.698Z,0.83
2019-03-04T17:18:53.843Z,1.17
2019-03-04T17:21:23.968Z,1.67
2019-03-04T17:23:54.371Z,1.10
2019-03-04T17:26:25.670Z,1.20
2019-03-04T17:28:57.508Z,1.10
2019-03-04T17:31:30.646Z,1.03
2019-03-04T17:34:01.793Z,1.10
2019-03-04T17:36:31.879Z,2.40
2019-03-04T17:39:03.554Z,1.50
2019-03-04T17:41:45.105Z,0.83
2019-03-04T17:44:10.049Z,1.63
2019-03-04T17:46:40.138Z,1.60
2019-03-04T17:49:10.219Z,1.00
2019-03-04T17:51:40.315Z,1.10
2019-03-04T17:54:10.427Z,1.50
2019-03-04T17:56:40.537Z,1.33
2019-03-04T17:59:10.530Z,1.17
2019-03-04T18:01:40.599Z,1.50
2019-03-04T18:04:10.729Z,1.60
2019-03-04T18:06:40.709Z,1.17
2019-03-04T18:09:10.779Z,1.10
2019-03-04T18:11:42.487Z,1.10
2019-03-04T18:14:12.578Z,1.40
2019-03-04T18:16:43.250Z,3.40
2019-03-04T18:19:13.279Z,1.50
2019-03-04T18:21:43.260Z,1.03
2019-03-04T18:24:13.284Z,1.30
2019-03-04T18:27:03.202Z,1.60
2019-03-04T18:30:00.334Z,1.23
2019-03-04T18:33:10.558Z,2.70
2019-03-04T18:36:15.228Z,3.60
2019-03-04T18:39:00.875Z,3.50
2019-03-04T18:41:49.641Z,1.07
2019-03-04T18:44:44.477Z,1.20
2019-03-04T18:47:57.498Z,2.30
2019-03-04T18:50:27.494Z,2.37
2019-03-04T18:52:57.491Z,0.90
2019-03-04T18:55:27.595Z,1.53
2019-03-04T18:58:00.735Z,1.10
2019-03-04T19:00:33.852Z,0.70
2019-03-04T19:03:03.848Z,0.70
2019-03-04T19:05:33.916Z,0.70
2019-03-04T19:08:04.001Z,0.80
2019-03-04T19:10:34.067Z,0.80
2019-03-04T19:13:04.186Z,0.90
2019-03-04T19:15:34.304Z,0.70
2019-03-04T19:18:04.399Z,0.50
2019-03-04T19:20:34.455Z,0.60
2019-03-04T19:23:04.549Z,0.60
2019-03-04T19:25:34.634Z,0.57
2019-03-04T19:28:04.801Z,0.90
2019-03-04T19:30:34.910Z,0.60
2019-03-04T19:33:05.141Z,0.60
2019-03-04T19:35:35.209Z,0.63
2019-03-04T19:38:06.890Z,0.73
2019-03-04T19:40:37.067Z,0.50
2019-03-04T19:43:07.114Z,0.77
2019-03-04T19:45:37.877Z,0.70
2019-03-04T19:48:08.113Z,0.83
2019-03-04T19:50:38.317Z,0.70
2019-03-04T19:53:08.765Z,0.57
2019-03-04T19:55:38.953Z,0.77
2019-03-04T19:58:09.049Z,1.10
2019-03-04T20:00:39.468Z,0.80
2019-03-04T20:03:09.632Z,2.10
2019-03-04T20:05:43.608Z,0.70
2019-03-04T20:08:16.513Z,0.70
2019-03-04T20:10:46.547Z,1.00
2019-03-04T20:13:16.925Z,0.50
2019-03-04T20:15:46.995Z,0.80
2019-03-04T20:18:17.200Z,0.50
2019-03-04T20:20:47.347Z,0.70
2019-03-04T20:23:17.352Z,0.57
2019-03-04T20:25:47.387Z,0.63
2019-03-04T20:28:17.404Z,0.90
2019-03-04T20:30:47.525Z,0.50
2019-03-04T20:33:17.631Z,0.90
2019-03-04T20:35:49.252Z,0.60
2019-03-04T20:38:21.841Z,0.60
2019-03-04T20:40:51.897Z,0.60
2019-03-04T20:43:21.971Z,0.70
2019-03-04T20:45:53.653Z,0.80
2019-03-04T20:48:23.723Z,0.73
2019-03-04T20:50:53.775Z,0.80
2019-03-04T20:53:23.888Z,0.87
2019-03-04T20:55:53.862Z,0.80
2019-03-04T20:58:23.873Z,0.50
2019-03-04T21:00:54.000Z,0.90
2019-03-04T21:03:34.342Z,0.60
2019-03-04T21:05:56.248Z,0.80
2019-03-04T21:08:26.370Z,0.60
2019-03-04T21:10:56.441Z,0.70
2019-03-04T21:13:35.126Z,0.60
2019-03-04T21:15:59.860Z,1.40
2019-03-04T21:18:29.964Z,1.33
2019-03-04T21:21:00.320Z,0.90
2019-03-04T21:23:30.320Z,1.07
2019-03-04T21:26:19.428Z,1.10
2019-03-04T21:29:00.566Z,0.93
2019-03-04T21:31:35.626Z,1.33
2019-03-04T21:34:37.255Z,0.90
2019-03-04T21:37:17.967Z,0.70
2019-03-04T21:39:48.561Z,1.10
2019-03-04T21:42:25.969Z,0.90
2019-03-04T21:45:23.802Z,1.03
2019-03-04T21:48:02.458Z,0.80
2019-03-04T21:50:41.109Z,4.80
2019-03-04T21:53:18.139Z,0.87
2019-03-04T21:56:15.143Z,1.10
2019-03-04T21:58:46.432Z,1.20
2019-03-04T22:01:21.728Z,1.20
2019-03-04T22:03:51.884Z,1.20
2019-03-04T22:06:22.289Z,1.00
2019-03-04T22:08:55.371Z,0.90
2019-03-04T22:11:26.386Z,0.93
2019-03-04T22:13:58.005Z,1.00
2019-03-04T22:16:29.047Z,1.30
2019-03-04T22:19:02.576Z,1.37
2019-03-04T22:21:32.451Z,0.97
2019-03-04T22:24:02.519Z,0.93
2019-03-04T22:26:33.913Z,1.00
2019-03-04T22:29:03.974Z,1.07
2019-03-04T22:31:35.851Z,1.03
2019-03-04T22:34:05.930Z,1.17
2019-03-04T22:36:35.997Z,1.10
2019-03-04T22:39:07.346Z,0.90
2019-03-04T22:41:40.651Z,0.80
2019-03-04T22:44:12.353Z,1.37
2019-03-04T22:46:48.911Z,1.00
2019-03-04T22:49:14.138Z,1.20
2019-03-04T22:51:51.145Z,0.90
2019-03-04T22:54:22.130Z,1.07
2019-03-04T22:56:55.450Z,0.93
2019-03-04T22:59:25.594Z,1.10
2019-03-04T23:02:06.923Z,1.20
2019-03-04T23:04:56.338Z,1.17
2019-03-04T23:07:29.576Z,1.10
2019-03-04T23:10:13.402Z,0.80
2019-03-04T23:12:57.366Z,0.80
2019-03-04T23:15:27.435Z,1.00
2019-03-04T23:17:58.630Z,1.00
2019-03-04T23:20:33.900Z,1.40
2019-03-04T23:23:03.908Z,1.00
2019-03-04T23:25:35.834Z,1.10
2019-03-04T23:28:06.845Z,1.20
2019-03-04T23:30:36.833Z,1.20
2019-03-04T23:33:08.084Z,1.00
2019-03-04T23:35:40.247Z,1.10
2019-03-04T23:38:12.022Z,1.50
2019-03-04T23:40:42.001Z,0.90
2019-03-04T23:43:11.984Z,1.30
2019-03-04T23:45:44.471Z,1.10
2019-03-04T23:48:17.193Z,1.00
2019-03-04T23:50:47.198Z,0.93
2019-03-04T23:53:18.446Z,1.10
2019-03-04T23:55:50.934Z,0.90
2019-03-04T23:58:20.252Z,1.23
